x

La Perouse Bank (46206) Wave Buoy

2:00 - Fri 3rd Jul 2015 All times are PDT. -7 hours from GMT.

  • Sig Wave height 7.9ft
  • Peak Period 8s
  • Wind
    13mph, 18mph gusts
  • Sea Temp 56°f
  • Luft Temp 58°f
  • Sea Pressure 1015mb
  • La Perouse Bank
  • La Perouse Bank

More Historic Weather Station data

Upgrade to MSW Pro to gain access to the past 30 days of data for over 8000 Wavebouys and Weather Stations around the globe.

Join Pro

Comparision Forecast

View Surf forecast
   
Fr 07/03 2:00 8ft 8s 13 18 mph 1015mb 56f 58f
1:00 7ft 8s 13 16 mph 1015.1mb 56f 58f
12:00 8ft 7s 18 22 mph 1015mb 56f 59f
11:00 7.5ft 7s 20 22 mph 1015mb 56f 59f
10:00 8ft 7s 11 16 mph 1015.5mb 56f 58f
9:00 8.5ft 8s 13 18 mph 1015.3mb 55f 58f
8:00 8ft 7s 13 18 mph 1015.2mb 55f 58f
7:00 9ft 8s 18 22 mph 1014.4mb 55f 58f
6:00 8ft 7s 16 20 mph 1014.1mb 55f 58f
5:00 8ft 7s 20 25 mph 1013.7mb 54f 58f
4:00 8.5ft 8s 20 25 mph 1013.5mb 54f 58f
3:00 8.5ft 8s 22 25 mph 1013.5mb 54f 58f
2:00 9.5ft 8s 22 27 mph 1013.4mb 54f 58f
1:00 10.5ft 8s 25 27 mph 1013.6mb 54f 58f
12:00  -   -  25
mph
- - 58f
Do 07/02 11:00 10ft 8s 27 31 mph 1013.8mb 55f 58f
10:00 11ft 8s 27 34 mph 1014mb 55f 59f
9:00 10ft 8s 27 34 mph 1013.7mb 55f 59f
8:00 10ft 8s 29 36 mph 1014.2mb 56f 59f
7:00 9ft 8s 27 31 mph 1015.1mb 56f 59f
6:00 8ft 7s 22 27 mph 1015.8mb 56f 58f
5:00 8ft 8s 20 25 mph 1016.3mb 56f 59f
4:00 7ft 7s 18 20 mph 1017mb 56f 58f
3:00 7ft 8s 16 18 mph 1017.3mb 56f 58f
2:00 6.5ft 7s 16 18 mph 1017.2mb 56f 58f
1:00 7ft 8s 13 16 mph 1017.4mb 56f 58f
12:00 7ft 8s 11 16 mph 1017.5mb 55f 58f
11:00 7ft 8s 13 18 mph 1017.2mb 55f 58f
10:00 7.5ft 7s 11 13 mph 1017.4mb 55f 58f
9:00 7ft 7s 11 13 mph 1017.4mb 55f 58f
8:00 7ft 8s 13 16 mph 1016.7mb 54f 57f
7:00 7ft 8s 9 11 mph 1016.6mb 54f 57f
6:00 7.5ft 8s 16 18 mph 1016.1mb 54f 57f
5:00 7.5ft 8s 16 18 mph 1016.1mb 53f 57f
4:00 8ft 8s 18 22 mph 1015.7mb 54f 57f
3:00 7ft 8s 16 18 mph 1015.6mb 54f 57f
2:00 7ft 8s 13 18 mph 1015.4mb 54f 57f
1:00 6.5ft 7s 16 20 mph 1015.3mb 54f 57f
12:00 6ft 8s 16 20 mph 1015.4mb 53f 57f
Mi 07/01 10:00 6ft 8s 16 18 mph 1015.7mb 54f 57f
9:00 6ft 7s 18 22 mph 1015.9mb 54f 57f
8:00 6ft 7s 18 20 mph 1016.2mb 55f 57f
7:00 5.5ft 8s 16 18 mph 1016.6mb 55f 57f
6:00 4.5ft 6s 16 18 mph 1016.9mb 55f 58f
5:00 4.5ft 7s 13 16 mph 1017.5mb 56f 58f
4:00 4.5ft 7s 11 13 mph 1018mb 57f 58f
3:00 4.5ft 7s 11 13 mph 1018.2mb 57f 58f
2:00 4.5ft 7s 11
mph
1018.4mb 57f 58f
1:00 5ft 7s 9
mph
1018.6mb 57f 58f
12:00 5ft 7s 4
mph
1018.6mb 58f 58f
11:00 5ft 7s  -  2 mph 1018.7mb 57f 59f
10:00 6ft 7s  -  2 mph 1018.7mb 56f 58f
9:00 7ft 8s  -  2 mph 1018.8mb 56f 57f
8:00 7ft 8s  -  2 mph 1018.7mb 55f 56f
7:00 7ft 8s 2 4 mph 1018.5mb 55f 56f
6:00 7ft 8s 2 4 mph 1018.1mb 55f 56f
5:00 7ft 8s 2 4 mph 1018mb 55f 56f
4:00 8ft 8s 4 9 mph 1017.8mb 55f 57f
3:00 8.5ft 8s 7 9 mph 1018.1mb 56f 58f
2:00 9ft 8s 11 13 mph 1018mb 55f 58f
1:00 9ft 8s 11 13 mph 1017.8mb 55f 57f
12:00 10ft 8s 11 13 mph 1017.8mb 54f 57f
Di 06/30 10:00 10ft 8s 18 20 mph 1017.9mb 54f 57f
9:00 10ft 8s 16 18 mph 1018mb 55f 58f
8:00 9ft 8s 18 22 mph 1018.5mb 56f 58f
7:00 8ft 8s 20 22 mph 1018.7mb 56f 59f
6:00 7ft 8s 18 20 mph 1019.4mb 56f 59f
5:00 6ft 7s 16 18 mph 1019.9mb 56f 59f
3:00 4.5ft 6s 11 13 mph 1020.7mb 58f 59f
2:00 4.5ft 6s 9 13 mph 1021mb 57f 57f
1:00 4.5ft 6s 9 11 mph 1021.2mb 58f 58f
12:00 4.5ft 6s 2
mph
1021.2mb 58f 57f
11:00 4.5ft 6s 2 4 mph 1021.2mb 57f 56f
10:00 4.5ft 7s 2 4 mph 1020.9mb 58f 56f
9:00 4.5ft 6s 2 4 mph 1020.8mb 58f 56f
8:00 4.5ft 15s 2 4 mph 1020.6mb 58f 56f
7:00 4.5ft 15s 4
mph
1020.4mb 58f 56f
6:00 4ft 15s 7 9 mph 1019.9mb 57f 56f
5:00 3.5ft 15s 4 7 mph 1019.7mb 58f 56f
4:00 3.5ft 15s 4 7 mph 1019.5mb 57f 55f
3:00 3.5ft 16s 4 7 mph 1019.2mb 57f 56f
2:00 3.5ft 15s 4
mph
1019.5mb 58f 56f
1:00 3.5ft 16s 2 4 mph 1019.4mb 58f 56f
12:00 3ft 16s  -  mph 1019.2mb 59f 55f
Mo 06/29 11:00 3ft 16s 4
mph
1018.9mb 59f 56f